createdAt,value
2022-10-11T00:01:35.001Z,1.90
2022-10-11T00:04:01.563Z,2.38
2022-10-11T00:06:28.067Z,2.80
2022-10-11T00:08:54.449Z,3.28
2022-10-11T00:11:20.777Z,3.60
2022-10-11T00:13:47.127Z,3.25
2022-10-11T00:16:15.293Z,3.28
2022-10-11T00:18:42.052Z,3.42
2022-10-11T00:21:13.076Z,2.42
2022-10-11T00:23:39.793Z,3.03
2022-10-11T00:26:09.464Z,2.67
2022-10-11T00:28:36.936Z,2.22
2022-10-11T00:31:08.244Z,2.92
2022-10-11T00:33:35.254Z,2.85
2022-10-11T00:36:02.391Z,3.30
2022-10-11T00:38:31.879Z,2.72
2022-10-11T00:40:59.001Z,2.53
2022-10-11T00:43:32.020Z,2.40
2022-10-11T00:45:58.318Z,2.38
2022-10-11T00:48:31.745Z,1.98
2022-10-11T00:51:01.069Z,1.33
2022-10-11T00:53:30.385Z,2.10
2022-10-11T00:56:12.045Z,2.05
2022-10-11T00:58:38.855Z,2.10
2022-10-11T01:01:05.661Z,1.90
2022-10-11T01:03:35.189Z,1.83
2022-10-11T01:06:03.441Z,2.75
2022-10-11T01:08:31.372Z,2.00
2022-10-11T01:10:58.350Z,2.15
2022-10-11T01:14:03.813Z,2.40
2022-10-11T01:16:42.448Z,1.90
2022-10-11T01:19:22.404Z,2.10
2022-10-11T01:21:58.665Z,1.45
2022-10-11T01:24:52.654Z,1.83
2022-10-11T01:27:40.350Z,2.17
2022-10-11T01:30:21.843Z,2.30
2022-10-11T01:33:12.941Z,2.08
2022-10-11T01:36:02.538Z,2.30
2022-10-11T01:41:27.260Z,1.83
2022-10-11T01:43:58.512Z,1.92
2022-10-11T01:48:57.039Z,2.10
2022-10-11T01:51:29.814Z,2.22
2022-10-11T01:54:08.785Z,2.42
2022-10-11T01:56:57.008Z,3.08
2022-10-11T01:59:33.428Z,2.22
2022-10-11T02:02:23.779Z,1.48
2022-10-11T02:05:09.084Z,2.10
2022-10-11T02:07:56.546Z,2.20
2022-10-11T02:10:35.880Z,2.00
2022-10-11T02:13:09.320Z,2.65
2022-10-11T02:15:40.597Z,2.60
2022-10-11T02:18:11.566Z,2.28
2022-10-11T02:20:41.348Z,2.67
2022-10-11T02:23:17.084Z,1.67
2022-10-11T02:25:45.633Z,2.10
2022-10-11T02:28:20.091Z,2.38
2022-10-11T02:30:48.129Z,2.60
2022-10-11T02:33:18.552Z,2.35
2022-10-11T02:35:49.328Z,2.58
2022-10-11T02:38:22.760Z,2.50
2022-10-11T02:40:57.716Z,2.60
2022-10-11T02:43:32.313Z,2.33
2022-10-11T02:46:03.208Z,2.88
2022-10-11T02:50:57.992Z,2.10
2022-10-11T02:53:25.976Z,2.72
2022-10-11T02:55:54.692Z,2.60
2022-10-11T02:58:22.797Z,2.83
2022-10-11T03:00:49.292Z,2.30
2022-10-11T03:03:15.668Z,1.80
2022-10-11T03:05:42.068Z,1.70
2022-10-11T03:08:09.904Z,1.80
2022-10-11T03:10:36.869Z,1.70
2022-10-11T03:13:04.054Z,1.95
2022-10-11T03:15:30.712Z,2.00
2022-10-11T03:17:57.117Z,2.15
2022-10-11T03:20:24.986Z,1.90
2022-10-11T03:22:51.361Z,2.05
2022-10-11T03:25:18.215Z,2.20
2022-10-11T03:27:44.637Z,1.65
2022-10-11T03:30:15.077Z,2.17
2022-10-11T03:32:44.374Z,2.30
2022-10-11T03:35:10.776Z,2.20
2022-10-11T03:37:37.178Z,2.08
2022-10-11T03:40:05.327Z,2.22
2022-10-11T03:42:31.689Z,2.42
2022-10-11T03:44:59.699Z,2.10
2022-10-11T03:47:26.056Z,2.15
2022-10-11T03:49:52.441Z,2.65
2022-10-11T03:52:18.802Z,2.08
2022-10-11T03:54:45.160Z,1.98
2022-10-11T03:57:11.505Z,1.83
2022-10-11T03:59:37.843Z,2.15
2022-10-11T04:02:04.552Z,1.50
2022-10-11T04:04:31.048Z,1.40
2022-10-11T04:06:57.411Z,2.00
2022-10-11T04:09:23.745Z,1.88
2022-10-11T04:11:50.098Z,2.10
2022-10-11T04:14:16.958Z,1.75
2022-10-11T04:16:43.320Z,1.80
2022-10-11T04:19:09.806Z,2.42
2022-10-11T04:21:36.163Z,1.55
2022-10-11T04:24:02.572Z,2.22
2022-10-11T04:26:29.094Z,1.70
2022-10-11T04:28:55.538Z,2.28
2022-10-11T04:31:22.374Z,2.42
2022-10-11T04:33:48.710Z,2.35
2022-10-11T04:36:15.105Z,1.60
2022-10-11T04:38:41.736Z,2.38
2022-10-11T04:41:09.205Z,2.28
2022-10-11T04:43:36.190Z,2.30
2022-10-11T04:46:03.429Z,2.40
2022-10-11T04:48:31.017Z,1.52
2022-10-11T04:50:57.423Z,2.50
2022-10-11T04:53:24.260Z,2.17
2022-10-11T04:56:00.820Z,2.15
2022-10-11T04:58:31.685Z,1.83
2022-10-11T05:00:58.601Z,2.45
2022-10-11T05:03:26.364Z,2.53
2022-10-11T05:05:53.218Z,2.45
2022-10-11T05:08:19.975Z,2.53
2022-10-11T05:11:01.598Z,3.03
2022-10-11T05:13:29.659Z,2.70
2022-10-11T05:15:56.477Z,2.38
2022-10-11T05:18:23.916Z,2.67
2022-10-11T05:21:09.022Z,2.55
2022-10-11T05:23:37.061Z,1.90
2022-10-11T05:26:04.411Z,1.92
2022-10-11T05:28:31.760Z,2.58
2022-10-11T05:30:58.958Z,2.00
2022-10-11T05:33:25.466Z,2.58
2022-10-11T05:35:52.106Z,2.13
2022-10-11T05:38:24.203Z,2.13
2022-10-11T05:40:51.238Z,2.38
2022-10-11T05:43:18.502Z,1.92
2022-10-11T05:45:45.348Z,2.92
2022-10-11T05:48:12.766Z,1.80
2022-10-11T05:50:39.510Z,2.22
2022-10-11T05:53:06.835Z,1.80
2022-10-11T05:55:37.929Z,2.28
2022-10-11T06:00:35.261Z,2.70
2022-10-11T06:03:01.607Z,2.45
2022-10-11T06:05:28.138Z,2.30
2022-10-11T06:07:54.620Z,2.05
2022-10-11T06:10:20.943Z,1.73
2022-10-11T06:12:47.267Z,2.38
2022-10-11T06:15:14.463Z,2.78
2022-10-11T06:17:41.042Z,1.83
2022-10-11T06:20:07.846Z,3.35
2022-10-11T06:22:34.235Z,2.78
2022-10-11T06:25:00.568Z,2.85
2022-10-11T06:27:27.328Z,2.55
2022-10-11T06:29:54.140Z,2.50
2022-10-11T06:32:20.575Z,2.45
2022-10-11T06:34:46.980Z,3.35
2022-10-11T06:37:13.441Z,2.97
2022-10-11T06:39:39.858Z,2.88
2022-10-11T06:42:06.387Z,2.55
2022-10-11T06:44:32.761Z,2.75
2022-10-11T06:46:59.097Z,2.55
2022-10-11T06:49:25.710Z,2.22
2022-10-11T06:51:52.051Z,2.75
2022-10-11T06:54:18.393Z,2.65
2022-10-11T06:56:45.659Z,1.83
2022-10-11T06:59:13.354Z,3.15
2022-10-11T07:01:39.741Z,2.10
2022-10-11T07:04:06.136Z,3.03
2022-10-11T07:06:38.813Z,3.35
2022-10-11T07:09:07.013Z,3.13
2022-10-11T07:11:33.900Z,2.70
2022-10-11T07:14:04.244Z,2.63
2022-10-11T07:16:30.632Z,2.80
2022-10-11T07:19:01.896Z,2.72
2022-10-11T07:21:29.958Z,2.83
2022-10-11T07:23:56.347Z,3.20
2022-10-11T07:26:22.700Z,3.47
2022-10-11T07:28:49.446Z,3.15
2022-10-11T07:31:19.813Z,3.35
2022-10-11T07:33:46.413Z,3.38
2022-10-11T07:36:13.343Z,3.42
2022-10-11T07:38:41.470Z,2.45
2022-10-11T07:41:09.275Z,3.30
2022-10-11T07:43:36.781Z,3.00
2022-10-11T07:46:04.927Z,3.60
2022-10-11T07:48:34.133Z,3.00
2022-10-11T07:51:07.921Z,4.00
2022-10-11T07:53:48.659Z,3.25
2022-10-11T07:56:19.732Z,4.10
2022-10-11T08:01:17.321Z,2.72
2022-10-11T08:03:43.849Z,3.97
2022-10-11T08:06:13.380Z,4.07
2022-10-11T08:08:39.995Z,3.80
2022-10-11T08:11:06.642Z,4.10
2022-10-11T08:13:33.717Z,3.13
2022-10-11T08:16:00.553Z,4.03
2022-10-11T08:18:27.214Z,3.13
2022-10-11T08:20:53.784Z,4.35
2022-10-11T08:23:20.358Z,4.90
2022-10-11T08:25:47.827Z,4.40
2022-10-11T08:28:17.353Z,3.83
2022-10-11T08:30:52.273Z,4.25
2022-10-11T08:33:19.053Z,4.32
2022-10-11T08:35:46.073Z,3.00
2022-10-11T08:38:12.651Z,3.50
2022-10-11T08:40:46.149Z,3.85
2022-10-11T08:43:27.922Z,3.17
2022-10-11T08:45:57.826Z,3.00
2022-10-11T08:48:35.240Z,2.72
2022-10-11T08:51:08.434Z,2.53
2022-10-11T08:53:57.905Z,2.30
2022-10-11T08:56:26.397Z,2.45
2022-10-11T08:59:08.862Z,2.10
2022-10-11T09:01:35.992Z,1.95
2022-10-11T09:04:03.545Z,2.50
2022-10-11T09:07:13.057Z,2.08
2022-10-11T09:09:49.651Z,1.42
2022-10-11T09:12:46.693Z,1.73
2022-10-11T09:15:26.211Z,1.40
2022-10-11T09:18:01.622Z,1.70
2022-10-11T09:20:52.422Z,1.60
2022-10-11T09:23:52.660Z,1.20
2022-10-11T09:26:31.090Z,1.70
2022-10-11T09:29:19.337Z,1.05
2022-10-11T09:31:49.311Z,1.40
2022-10-11T09:34:16.111Z,1.38
2022-10-11T09:37:03.433Z,0.98
2022-10-11T09:39:35.369Z,1.50
2022-10-11T09:42:03.818Z,1.23
2022-10-11T09:44:37.726Z,1.45
2022-10-11T09:47:06.334Z,1.40
2022-10-11T09:49:40.746Z,1.10
2022-10-11T09:52:15.885Z,1.48
2022-10-11T09:54:58.110Z,1.42
2022-10-11T09:57:31.034Z,1.00
2022-10-11T10:00:24.374Z,1.88
2022-10-11T10:02:53.330Z,1.73
2022-10-11T10:05:21.868Z,1.25
2022-10-11T10:08:04.757Z,1.33
2022-10-11T10:10:43.746Z,1.83
2022-10-11T10:13:19.570Z,1.05
2022-10-11T10:15:48.062Z,1.00
2022-10-11T10:18:42.406Z,1.33
2022-10-11T10:21:13.144Z,1.52
2022-10-11T10:23:39.767Z,1.48
2022-10-11T10:26:13.435Z,1.10
2022-10-11T10:29:22.625Z,1.42
2022-10-11T10:32:12.734Z,1.80
2022-10-11T10:34:38.267Z,1.30
2022-10-11T10:37:26.635Z,1.52
2022-10-11T10:40:14.242Z,1.38
2022-10-11T10:42:40.660Z,1.33
2022-10-11T10:45:20.072Z,1.20
2022-10-11T10:48:03.484Z,1.42
2022-10-11T10:50:49.946Z,1.25
2022-10-11T10:53:25.600Z,1.30
2022-10-11T10:56:01.521Z,0.90
2022-10-11T10:58:39.967Z,0.88
2022-10-11T11:01:17.754Z,1.23
2022-10-11T11:03:47.901Z,1.00
2022-10-11T11:06:34.150Z,1.10
2022-10-11T11:09:02.792Z,1.00
2022-10-11T11:12:02.518Z,1.00
2022-10-11T11:14:50.506Z,1.27
2022-10-11T11:17:52.186Z,0.98
2022-10-11T11:23:22.066Z,1.50
2022-10-11T11:26:00.481Z,1.58
2022-10-11T11:28:45.219Z,1.88
2022-10-11T11:31:31.670Z,1.60
2022-10-11T11:34:28.840Z,1.40
2022-10-11T11:37:01.942Z,1.42
2022-10-11T11:39:36.554Z,1.80
2022-10-11T11:42:13.358Z,1.20
2022-10-11T11:47:50.501Z,1.13
2022-10-11T11:50:23.249Z,1.20
2022-10-11T11:52:53.993Z,1.50
2022-10-11T11:55:49.388Z,1.33
2022-10-11T11:58:44.233Z,1.17
2022-10-11T12:01:32.147Z,1.52
2022-10-11T12:04:20.509Z,1.00
2022-10-11T12:07:15.465Z,1.10
2022-10-11T12:09:46.432Z,1.10
2022-10-11T12:12:35.357Z,0.95
2022-10-11T12:15:53.760Z,0.98
2022-10-11T12:18:20.781Z,0.90
2022-10-11T12:21:00.430Z,0.93
2022-10-11T12:23:29.740Z,0.77
2022-10-11T12:26:25.473Z,1.30
2022-10-11T12:29:06.154Z,1.20
2022-10-11T12:31:36.871Z,0.90
2022-10-11T12:34:09.183Z,1.20
2022-10-11T12:36:37.127Z,1.15
2022-10-11T12:39:18.498Z,1.30
2022-10-11T12:41:47.665Z,2.00
2022-10-11T12:44:27.512Z,1.48
2022-10-11T12:46:53.888Z,0.82
2022-10-11T12:49:51.534Z,1.50
2022-10-11T12:52:17.820Z,1.17
2022-10-11T12:55:12.994Z,1.38
2022-10-11T12:57:59.025Z,1.48
2022-10-11T13:00:32.453Z,1.42
2022-10-11T13:03:01.933Z,1.75
2022-10-11T13:05:36.387Z,1.90
2022-10-11T13:08:05.418Z,1.20
2022-10-11T13:10:41.624Z,1.30
2022-10-11T13:13:15.412Z,1.55
2022-10-11T13:15:44.026Z,1.70
2022-10-11T13:18:16.696Z,1.25
2022-10-11T13:20:43.074Z,1.10
2022-10-11T13:23:22.911Z,1.45
2022-10-11T13:25:50.471Z,1.25
2022-10-11T13:28:18.571Z,1.10
2022-10-11T13:30:47.755Z,1.10
2022-10-11T13:33:21.281Z,1.45
2022-10-11T13:35:48.247Z,1.60
2022-10-11T13:38:22.766Z,1.05
2022-10-11T13:40:51.191Z,0.95
2022-10-11T13:43:22.226Z,1.30
2022-10-11T13:45:48.729Z,1.30
2022-10-11T13:48:16.651Z,1.30
2022-10-11T13:50:46.824Z,1.08
2022-10-11T13:53:13.173Z,1.77
2022-10-11T13:55:42.363Z,0.93
2022-10-11T13:58:18.506Z,1.40
2022-10-11T14:00:58.253Z,1.10
2022-10-11T14:03:37.244Z,2.13
2022-10-11T14:06:04.187Z,1.40
2022-10-11T14:08:37.629Z,1.23
2022-10-11T14:11:06.821Z,1.98
2022-10-11T14:13:40.409Z,1.02
2022-10-11T14:16:28.650Z,1.30
2022-10-11T14:18:58.083Z,1.30
2022-10-11T14:21:28.453Z,1.15
2022-10-11T14:24:02.637Z,1.35
2022-10-11T14:26:35.835Z,0.90
2022-10-11T14:29:12.487Z,1.40
2022-10-11T14:31:41.963Z,1.10
2022-10-11T14:34:16.142Z,1.25
2022-10-11T14:36:42.509Z,1.10
2022-10-11T14:39:22.240Z,1.27
2022-10-11T14:41:51.573Z,1.70
2022-10-11T14:44:19.070Z,1.40
2022-10-11T14:46:46.520Z,0.90
2022-10-11T14:49:18.952Z,0.90
2022-10-11T14:51:47.665Z,1.00
2022-10-11T14:54:15.775Z,1.20
2022-10-11T14:56:42.169Z,1.00
2022-10-11T14:59:14.764Z,1.13
2022-10-11T15:01:41.295Z,1.25
2022-10-11T15:04:07.685Z,1.40
2022-10-11T15:06:37.836Z,1.38
2022-10-11T15:09:06.093Z,1.75
2022-10-11T15:11:38.010Z,1.58
2022-10-11T15:14:07.343Z,1.25
2022-10-11T15:16:34.295Z,1.40
2022-10-11T15:19:01.064Z,1.50
2022-10-11T15:21:29.250Z,2.10
2022-10-11T15:23:56.099Z,2.13
2022-10-11T15:26:27.632Z,2.53
2022-10-11T15:28:56.033Z,3.55
2022-10-11T15:31:23.705Z,4.50
2022-10-11T15:33:50.080Z,3.72
2022-10-11T15:36:21.521Z,2.63
2022-10-11T15:38:48.787Z,2.20
2022-10-11T15:41:18.730Z,2.22
2022-10-11T15:43:46.254Z,2.17
2022-10-11T15:46:15.914Z,1.98
2022-10-11T15:48:42.576Z,1.30
2022-10-11T15:51:09.130Z,2.17
2022-10-11T15:53:35.674Z,1.92
2022-10-11T15:56:06.419Z,1.30
2022-10-11T15:58:36.132Z,1.80
2022-10-11T16:01:09.406Z,2.03
2022-10-11T16:03:36.405Z,2.78
2022-10-11T16:06:05.582Z,2.65
2022-10-11T16:08:33.769Z,2.17
2022-10-11T16:11:00.318Z,1.58
2022-10-11T16:13:26.776Z,2.03
2022-10-11T16:15:53.194Z,1.85
2022-10-11T16:18:20.935Z,1.90
2022-10-11T16:20:49.976Z,2.55
2022-10-11T16:23:16.470Z,3.20
2022-10-11T16:25:43.265Z,2.38
2022-10-11T16:28:11.609Z,5.00
2022-10-11T16:30:39.796Z,3.88
2022-10-11T16:33:06.220Z,3.72
2022-10-11T16:35:32.933Z,5.40
2022-10-11T16:38:00.527Z,5.07
2022-10-11T16:40:28.175Z,9.77
2022-10-11T16:42:54.497Z,15.27
2022-10-11T16:45:20.982Z,13.43
2022-10-11T16:47:48.305Z,11.25
2022-10-11T16:50:14.723Z,11.27
2022-10-11T16:52:41.215Z,14.88
2022-10-11T16:55:07.947Z,17.58
2022-10-11T16:57:34.402Z,15.65
2022-10-11T17:00:00.798Z,10.38
2022-10-11T17:02:32.498Z,9.23
2022-10-11T17:04:59.181Z,9.13
2022-10-11T17:07:25.938Z,6.03
2022-10-11T17:09:52.327Z,6.00
2022-10-11T17:12:22.429Z,9.48
2022-10-11T17:14:50.123Z,6.90
2022-10-11T17:17:18.435Z,4.93
2022-10-11T17:19:45.578Z,4.05
2022-10-11T17:22:14.920Z,3.15
2022-10-11T17:24:41.552Z,3.70
2022-10-11T17:27:08.096Z,3.38
2022-10-11T17:29:36.209Z,2.80
2022-10-11T17:32:03.270Z,1.70
2022-10-11T17:34:29.689Z,3.10
2022-10-11T17:36:56.037Z,3.70
2022-10-11T17:39:23.868Z,3.72
2022-10-11T17:41:50.419Z,2.70
2022-10-11T17:44:18.545Z,2.65
2022-10-11T17:46:45.693Z,2.10
2022-10-11T17:49:13.919Z,2.45
2022-10-11T17:51:41.229Z,2.03
2022-10-11T17:54:12.276Z,2.35
2022-10-11T17:56:39.982Z,1.90
2022-10-11T17:59:07.322Z,4.40
2022-10-11T18:01:33.765Z,4.40
2022-10-11T18:04:03.156Z,4.00
2022-10-11T18:06:32.033Z,2.20
2022-10-11T18:09:02.938Z,2.00
2022-10-11T18:11:30.373Z,2.88
2022-10-11T18:13:56.970Z,2.53
2022-10-11T18:16:26.822Z,3.55
2022-10-11T18:18:54.792Z,8.57
2022-10-11T18:21:21.172Z,7.53
2022-10-11T18:23:47.656Z,7.45
2022-10-11T18:26:15.691Z,4.47
2022-10-11T18:28:43.546Z,5.75
2022-10-11T18:31:14.343Z,4.90
2022-10-11T18:33:41.269Z,3.88
2022-10-11T18:36:09.158Z,4.03
2022-10-11T18:38:38.024Z,3.65
2022-10-11T18:41:09.244Z,4.10
2022-10-11T18:43:36.407Z,4.55
2022-10-11T18:46:11.704Z,4.10
2022-10-11T18:48:46.398Z,2.70
2022-10-11T18:51:16.428Z,3.20
2022-10-11T18:53:42.807Z,2.95
2022-10-11T18:56:10.894Z,2.13
2022-10-11T18:58:40.118Z,2.50
2022-10-11T19:01:18.033Z,4.88
2022-10-11T19:03:46.044Z,3.42
2022-10-11T19:06:19.001Z,3.30
2022-10-11T19:09:13.710Z,3.28
2022-10-11T19:11:40.942Z,2.35
2022-10-11T19:14:14.505Z,2.22
2022-10-11T19:16:45.417Z,2.22
2022-10-11T19:21:39.398Z,3.20
2022-10-11T19:24:05.959Z,2.35
2022-10-11T19:26:34.872Z,1.75
2022-10-11T19:29:07.720Z,2.00
2022-10-11T19:31:36.378Z,12.18
2022-10-11T19:34:03.479Z,12.80
2022-10-11T19:36:35.533Z,7.47
2022-10-11T19:39:04.835Z,4.28
2022-10-11T19:41:31.626Z,5.93
2022-10-11T19:43:58.211Z,7.82
2022-10-11T19:46:50.307Z,6.90
2022-10-11T19:49:25.070Z,7.13
2022-10-11T19:51:52.890Z,7.20
2022-10-11T19:54:19.687Z,6.10
2022-10-11T19:56:46.070Z,5.70
2022-10-11T19:59:12.945Z,7.32
2022-10-11T20:01:40.240Z,8.23
2022-10-11T20:04:18.799Z,8.40
2022-10-11T20:06:57.021Z,5.90
2022-10-11T20:09:29.564Z,5.72
2022-10-11T20:11:56.835Z,4.50
2022-10-11T20:14:23.340Z,3.45
2022-10-11T20:16:50.574Z,3.15
2022-10-11T20:19:18.344Z,1.90
2022-10-11T20:21:45.235Z,2.30
2022-10-11T20:24:11.793Z,1.88
2022-10-11T20:26:38.999Z,6.32
2022-10-11T20:29:05.589Z,26.40
2022-10-11T20:31:34.024Z,17.15
2022-10-11T20:34:04.144Z,9.07
2022-10-11T20:36:32.054Z,7.35
2022-10-11T20:39:00.260Z,5.07
2022-10-11T20:41:31.135Z,6.72
2022-10-11T20:44:00.318Z,5.78
2022-10-11T20:46:29.795Z,3.72
2022-10-11T20:49:01.888Z,2.55
2022-10-11T20:51:30.505Z,2.53
2022-10-11T20:53:57.894Z,2.22
2022-10-11T20:56:24.295Z,2.22
2022-10-11T20:58:52.579Z,2.60
2022-10-11T21:01:31.598Z,2.97
2022-10-11T21:03:59.592Z,2.13
2022-10-11T21:06:26.971Z,2.88
2022-10-11T21:09:01.661Z,2.50
2022-10-11T21:11:29.864Z,3.40
2022-10-11T21:13:57.811Z,3.30
2022-10-11T21:16:24.605Z,3.15
2022-10-11T21:18:52.421Z,3.80
2022-10-11T21:21:18.859Z,3.83
2022-10-11T21:23:45.205Z,3.15
2022-10-11T21:26:14.501Z,3.33
2022-10-11T21:28:41.211Z,3.42
2022-10-11T21:31:16.604Z,3.65
2022-10-11T21:33:43.963Z,6.03
2022-10-11T21:36:18.583Z,2.80
2022-10-11T21:38:45.285Z,2.55
2022-10-11T21:41:15.018Z,3.15
2022-10-11T21:43:41.708Z,3.80
2022-10-11T21:46:09.372Z,3.92
2022-10-11T21:48:35.728Z,3.15
2022-10-11T21:51:02.114Z,3.90
2022-10-11T21:53:29.807Z,4.82
2022-10-11T21:55:57.763Z,3.55
2022-10-11T21:58:24.181Z,7.47
2022-10-11T22:00:50.579Z,3.20
2022-10-11T22:03:16.990Z,3.65
2022-10-11T22:05:44.936Z,2.80
2022-10-11T22:08:12.534Z,3.20
2022-10-11T22:10:39.981Z,3.80
2022-10-11T22:13:06.357Z,2.80
2022-10-11T22:15:34.569Z,2.90
2022-10-11T22:18:01.345Z,3.60
2022-10-11T22:20:28.717Z,2.75
2022-10-11T22:22:55.139Z,4.15
2022-10-11T22:25:21.500Z,3.63
2022-10-11T22:27:47.837Z,3.40
2022-10-11T22:30:14.261Z,3.30
2022-10-11T22:32:42.894Z,3.88
2022-10-11T22:35:09.367Z,3.13
2022-10-11T22:37:35.938Z,3.63
2022-10-11T22:40:02.533Z,3.67
2022-10-11T22:42:30.255Z,3.50
2022-10-11T22:44:56.624Z,2.85
2022-10-11T22:47:23.074Z,3.30
2022-10-11T22:49:49.394Z,2.80
2022-10-11T22:52:15.738Z,3.00
2022-10-11T22:54:42.143Z,2.50
2022-10-11T22:57:08.612Z,3.10
2022-10-11T22:59:35.036Z,2.65
2022-10-11T23:02:01.376Z,3.10
2022-10-11T23:04:27.791Z,2.75
2022-10-11T23:06:54.158Z,2.60
2022-10-11T23:09:21.050Z,2.80
2022-10-11T23:11:47.378Z,2.95
2022-10-11T23:14:13.801Z,2.45
2022-10-11T23:16:40.134Z,2.33
2022-10-11T23:19:06.526Z,2.83
2022-10-11T23:21:32.843Z,2.65
2022-10-11T23:23:59.329Z,2.50
2022-10-11T23:26:25.905Z,2.78
2022-10-11T23:28:55.174Z,2.85
2022-10-11T23:31:21.939Z,2.88
2022-10-11T23:33:48.714Z,3.10
2022-10-11T23:36:17.275Z,3.75
2022-10-11T23:38:43.730Z,3.17
2022-10-11T23:41:10.623Z,3.13
2022-10-11T23:43:37.172Z,2.67
2022-10-11T23:46:03.605Z,2.65
2022-10-11T23:48:29.989Z,2.60
2022-10-11T23:50:56.331Z,2.55
2022-10-11T23:53:22.836Z,2.72
2022-10-11T23:55:49.209Z,2.85
2022-10-11T23:58:15.582Z,3.15
